Time;durP1;ratioP1;P1;durP2;ratioP2;P2;SDS_P1;SDS_P2;PMS_P1;PMS_P2;Temp;Humidity;BMP_temperature;BMP_pressure;BME280_temperature;BME280_humidity;BME280_pressure;Samples;Min_cycle;Max_cycle;Signal;HPM_P1;HPM_P2
2021/12/29 00:02:31;;;;;;;4.40;1.27;;;;;;;7.57;100.00;153303.47;4997742;28;20456;-75
2021/12/29 00:05:09;;;;;;;3.70;1.30;;;;;;;7.58;100.00;153306.03;5030749;28;20658;-76
2021/12/29 00:07:45;;;;;;;1.37;1.00;;;;;;;7.58;100.00;153306.03;5014184;28;20445;-75
2021/12/29 00:10:21;;;;;;;3.47;1.30;;;;;;;7.57;100.00;153303.47;5012638;28;20457;-75
2021/12/29 00:12:56;;;;;;;4.27;1.30;;;;;;;7.58;100.00;153307.34;5013956;28;20444;-75
2021/12/29 00:15:32;;;;;;;4.67;1.33;;;;;;;7.57;100.00;153303.47;4982277;28;20449;-75
2021/12/29 00:18:07;;;;;;;2.07;0.80;;;;;;;7.54;100.00;153295.72;5013948;28;20477;-75
2021/12/29 00:20:44;;;;;;;2.13;1.10;;;;;;;7.59;100.00;153308.63;4997486;28;20437;-75
2021/12/29 00:23:20;;;;;;;4.77;2.00;;;;;;;7.59;100.00;153309.94;4997868;28;20484;-75
2021/12/29 00:25:55;;;;;;;2.77;0.80;;;;;;;7.58;100.00;153307.34;5014393;28;20441;-75
2021/12/29 00:28:31;;;;;;;1.87;1.03;;;;;;;7.60;100.00;153311.25;4998123;28;20544;-75
2021/12/29 00:31:08;;;;;;;3.10;1.00;;;;;;;7.60;100.00;153312.50;4997532;28;20452;-76
2021/12/29 00:34:03;;;;;;;1.60;1.00;;;;;;;7.61;100.00;153313.78;5013894;28;20449;-75
2021/12/29 00:36:59;;;;;;;2.10;0.77;;;;;;;7.61;100.00;153313.78;5013968;28;20908;-75
2021/12/29 00:39:53;;;;;;;1.87;0.87;;;;;;;7.56;100.00;153302.19;5013747;28;20437;-75
2021/12/29 00:42:48;;;;;;;1.33;0.77;;;;;;;7.55;100.00;153298.28;5013904;28;20816;-75
2021/12/29 00:45:47;;;;;;;2.77;1.27;;;;;;;7.55;100.00;153298.28;4993474;28;20536;-75
2021/12/29 00:48:29;;;;;;;1.20;0.57;;;;;;;7.53;100.00;153293.13;4982185;28;20830;-76
2021/12/29 00:51:05;;;;;;;2.00;1.27;;;;;;;7.54;100.00;153295.72;5012545;28;20453;-75
2021/12/29 00:53:42;;;;;;;3.67;0.90;;;;;;;7.54;100.00;153295.72;5010794;28;20445;-75
2021/12/29 00:56:18;;;;;;;2.33;1.00;;;;;;;7.57;100.00;153303.47;4994066;28;21010;-76
2021/12/29 00:58:54;;;;;;;1.40;0.70;;;;;;;7.54;100.00;153297.03;5009911;28;20441;-75
2021/12/29 01:01:29;;;;;;;1.20;0.70;;;;;;;7.53;100.00;153294.44;4994004;28;20781;-76
2021/12/29 01:04:05;;;;;;;2.37;0.80;;;;;;;7.54;100.00;153297.03;5010889;28;20429;-75
2021/12/29 01:06:40;;;;;;;2.30;1.23;;;;;;;7.52;100.00;153291.81;4994189;28;20453;-75
2021/12/29 01:09:33;;;;;;;1.93;0.60;;;;;;;7.57;100.00;153303.47;4992273;28;20441;-75
2021/12/29 01:12:09;;;;;;;1.93;1.00;;;;;;;7.52;100.00;153290.56;5009907;28;20449;-75
2021/12/29 01:14:53;;;;;;;2.30;0.80;;;;;;;7.51;100.00;153287.97;4993804;28;20577;-75
2021/12/29 01:17:31;;;;;;;1.53;0.67;;;;;;;7.50;100.00;153286.66;4996019;28;20480;-75
2021/12/29 01:20:07;;;;;;;3.40;1.23;;;;;;;7.51;100.00;153289.28;4994046;28;20430;-75
2021/12/29 01:22:43;;;;;;;1.20;0.70;;;;;;;7.51;100.00;153287.97;4993786;28;20438;-76
2021/12/29 01:25:21;;;;;;;3.03;1.20;;;;;;;7.53;100.00;153293.13;4993656;28;20944;-75
2021/12/29 01:27:57;;;;;;;2.27;0.70;;;;;;;7.55;100.00;153299.59;5006936;28;20446;-76
2021/12/29 01:30:33;;;;;;;3.60;0.70;;;;;;;7.53;100.00;153293.13;5006667;28;20952;-75
2021/12/29 01:33:08;;;;;;;1.40;0.73;;;;;;;7.58;100.00;153306.03;5006628;28;20821;-75
2021/12/29 01:35:44;;;;;;;1.63;0.70;;;;;;;7.55;100.00;153298.28;4990285;28;20446;-76
2021/12/29 01:38:20;;;;;;;1.70;0.53;;;;;;;7.53;100.00;153293.13;5006560;28;20470;-75
2021/12/29 01:40:57;;;;;;;1.63;0.57;;;;;;;7.56;100.00;153302.19;5009418;28;20433;-75
2021/12/29 01:43:32;;;;;;;1.00;0.60;;;;;;;7.56;100.00;153300.88;4994449;28;20540;-76
2021/12/29 01:46:08;;;;;;;1.73;0.80;;;;;;;7.56;100.00;153300.88;4994635;28;20441;-76
2021/12/29 01:48:44;;;;;;;2.37;0.60;;;;;;;7.56;100.00;153302.19;5009383;28;20466;-75
2021/12/29 01:51:20;;;;;;;1.33;0.77;;;;;;;7.56;100.00;153300.88;5009552;28;20465;-76
2021/12/29 01:54:04;;;;;;;1.20;0.50;;;;;;;7.50;100.00;153285.38;4978001;28;20544;-75
2021/12/29 01:56:43;;;;;;;0.87;0.43;;;;;;;7.56;100.00;153300.88;4992991;28;20442;-75
2021/12/29 01:59:19;;;;;;;1.10;0.60;;;;;;;7.54;100.00;153295.72;4992994;28;20848;-75
2021/12/29 02:01:55;;;;;;;0.90;0.40;;;;;;;7.56;100.00;153302.19;4993091;28;20796;-75
2021/12/29 02:04:31;;;;;;;1.07;0.53;;;;;;;7.58;100.00;153306.03;5024681;28;20444;-75
2021/12/29 02:07:07;;;;;;;1.90;0.60;;;;;;;7.59;100.00;153308.63;4992740;28;20449;-75
2021/12/29 02:09:43;;;;;;;2.10;0.60;;;;;;;7.61;100.00;153315.09;5007953;28;20441;-75
2021/12/29 02:12:20;;;;;;;3.73;0.60;;;;;;;7.65;100.00;153324.16;4993442;28;20465;-76
2021/12/29 02:14:56;;;;;;;1.40;0.40;;;;;;;7.64;100.00;153321.56;4977721;28;20434;-75
2021/12/29 02:17:32;;;;;;;1.50;0.53;;;;;;;7.68;100.00;153331.84;5008642;28;20453;-75
2021/12/29 02:20:11;;;;;;;2.00;0.47;;;;;;;7.68;100.00;153331.84;5009137;28;20442;-76
2021/12/29 02:22:50;;;;;;;2.67;0.50;;;;;;;7.63;100.00;153320.25;5008893;28;20859;-75
2021/12/29 02:25:46;;;;;;;1.80;0.37;;;;;;;7.62;100.00;153317.69;5008885;28;20441;-75
2021/12/29 02:28:25;;;;;;;3.93;0.70;;;;;;;7.63;100.00;153318.94;5009195;28;20449;-75
2021/12/29 02:31:02;;;;;;;1.00;0.57;;;;;;;7.59;100.00;153308.63;4992611;28;20468;-76
2021/12/29 02:33:37;;;;;;;1.07;0.50;;;;;;;7.63;100.00;153318.94;4992338;28;20551;-75
2021/12/29 02:36:16;;;;;;;1.10;0.70;;;;;;;7.65;100.00;153324.16;5008605;28;20784;-75
2021/12/29 02:38:54;;;;;;;2.67;0.40;;;;;;;7.61;100.00;153313.78;4993332;28;20469;-75
2021/12/29 02:41:31;;;;;;;0.90;0.40;;;;;;;7.64;100.00;153322.84;4992193;28;20449;-75
2021/12/29 02:44:10;;;;;;;0.70;0.40;;;;;;;7.64;100.00;153321.56;5008597;28;20809;-75
2021/12/29 02:46:45;;;;;;;1.10;0.40;;;;;;;7.65;100.00;153325.41;5010096;28;20765;-75
2021/12/29 02:49:21;;;;;;;6.00;0.60;;;;;;;7.67;100.00;153329.31;4991782;28;20504;-75
2021/12/29 02:51:58;;;;;;;1.27;0.57;;;;;;;7.68;100.00;153331.84;5024730;28;20449;-75
2021/12/29 02:54:33;;;;;;;1.00;0.40;;;;;;;7.67;100.00;153330.59;4993900;28;20805;-75
2021/12/29 02:57:09;;;;;;;0.60;0.30;;;;;;;7.69;100.00;153334.47;5028657;28;20810;-75
2021/12/29 02:59:45;;;;;;;0.90;0.50;;;;;;;7.71;100.00;153339.63;5013807;28;20834;-75
2021/12/29 03:02:21;;;;;;;1.63;0.50;;;;;;;7.70;100.00;153337.06;5008471;28;20808;-75
2021/12/29 03:04:58;;;;;;;0.60;0.20;;;;;;;7.67;100.00;153329.31;5008323;28;20434;-75
2021/12/29 03:07:35;;;;;;;0.60;0.30;;;;;;;7.67;100.00;153329.31;5006684;28;20457;-75
2021/12/29 03:10:10;;;;;;;1.03;0.40;;;;;;;7.70;100.00;153338.38;5007333;28;20449;-75
2021/12/29 03:12:46;;;;;;;0.90;0.47;;;;;;;7.73;100.00;153344.81;4992031;28;20940;-76
2021/12/29 03:15:21;;;;;;;1.10;0.33;;;;;;;7.74;100.00;153348.69;5007090;28;20450;-75
2021/12/29 03:17:57;;;;;;;1.80;0.53;;;;;;;7.77;100.00;153356.44;4991730;28;20539;-75
2021/12/29 03:20:33;;;;;;;0.67;0.33;;;;;;;7.75;100.00;153349.97;5008404;28;20868;-75
2021/12/29 03:23:10;;;;;;;0.77;0.33;;;;;;;7.79;100.00;153360.28;5008258;28;20441;-75
2021/12/29 03:25:47;;;;;;;0.80;0.50;;;;;;;7.78;100.00;153358.97;5002047;28;20436;-75
2021/12/29 03:28:24;;;;;;;0.67;0.33;;;;;;;7.81;100.00;153366.75;5011031;28;20436;-75
2021/12/29 03:31:00;;;;;;;1.47;0.40;;;;;;;7.84;100.00;153373.19;5012436;28;20436;-75
2021/12/29 03:33:36;;;;;;;0.73;0.30;;;;;;;7.86;100.00;153378.41;5027745;28;20445;-75
2021/12/29 03:36:13;;;;;;;1.00;0.40;;;;;;;7.79;100.00;153361.59;5027639;28;20507;-75
2021/12/29 03:38:50;;;;;;;1.00;0.40;;;;;;;7.79;100.00;153361.59;5027548;28;20483;-75
2021/12/29 03:41:25;;;;;;;0.80;0.30;;;;;;;7.84;100.00;153374.50;5019332;28;20445;-75
2021/12/29 03:44:01;;;;;;;1.10;0.57;;;;;;;7.87;100.00;153380.97;4992565;28;20449;-76
2021/12/29 03:46:39;;;;;;;0.83;0.40;;;;;;;7.88;100.00;153384.88;5007927;28;20508;-75
2021/12/29 03:49:14;;;;;;;0.80;0.30;;;;;;;7.82;100.00;153368.03;4991411;28;20465;-75
2021/12/29 03:51:50;;;;;;;0.90;0.50;;;;;;;7.84;100.00;153373.19;4991708;28;20457;-75
2021/12/29 03:54:27;;;;;;;0.70;0.33;;;;;;;7.80;100.00;153362.88;5008323;28;20437;-75
2021/12/29 03:57:03;;;;;;;1.20;0.40;;;;;;;7.78;100.00;153357.72;4979581;28;20448;-75
2021/12/29 03:59:39;;;;;;;0.80;0.20;;;;;;;7.78;100.00;153357.72;5007431;28;20476;-76
2021/12/29 04:02:15;;;;;;;0.70;0.40;;;;;;;7.78;100.00;153357.72;5007846;28;20815;-75
2021/12/29 04:04:50;;;;;;;0.90;0.40;;;;;;;7.76;100.00;153352.53;4990825;28;20445;-75
2021/12/29 04:07:26;;;;;;;0.60;0.27;;;;;;;7.74;100.00;153347.38;4976501;28;20480;-76
2021/12/29 04:10:04;;;;;;;0.90;0.30;;;;;;;7.74;100.00;153347.38;4989759;28;20456;-75
2021/12/29 04:12:40;;;;;;;1.33;0.50;;;;;;;7.72;100.00;153343.53;4992152;28;20796;-75
2021/12/29 04:15:17;;;;;;;0.70;0.30;;;;;;;7.72;100.00;153342.22;4991240;28;20449;-76
2021/12/29 04:17:58;;;;;;;1.73;0.40;;;;;;;7.72;100.00;153342.22;5007697;28;20850;-76
2021/12/29 04:23:30;;;;;;;1.20;0.57;;;;;;;7.69;100.00;153335.75;5024020;28;20473;-76
2021/12/29 04:26:08;;;;;;;2.90;1.67;;;;;;;7.68;100.00;153333.16;4991381;28;20991;-75
2021/12/29 04:28:43;;;;;;;1.53;0.90;;;;;;;7.67;100.00;153330.59;5011397;28;20504;-76
2021/12/29 04:31:19;;;;;;;1.40;0.73;;;;;;;7.69;100.00;153334.47;4994895;28;20429;-76
2021/12/29 04:33:55;;;;;;;1.87;0.70;;;;;;;7.69;100.00;153334.47;4979502;28;20452;-76
2021/12/29 04:36:31;;;;;;;1.77;0.80;;;;;;;7.68;100.00;153333.16;5010054;28;20437;-76
2021/12/29 04:39:07;;;;;;;1.30;0.57;;;;;;;7.67;100.00;153330.59;4979656;28;20469;-76
2021/12/29 04:41:44;;;;;;;2.03;0.60;;;;;;;7.67;100.00;153330.59;4979374;28;20488;-76
2021/12/29 04:44:20;;;;;;;1.60;0.60;;;;;;;7.65;100.00;153324.16;5010748;28;20449;-75
2021/12/29 04:46:57;;;;;;;3.00;2.10;;;;;;;7.64;100.00;153321.56;5008868;28;20543;-76
2021/12/29 04:49:40;;;;;;;2.90;2.60;;;;;;;7.62;100.00;153317.69;5010842;28;20875;-76
2021/12/29 04:52:15;;;;;;;1.90;1.23;;;;;;;7.63;100.00;153318.94;5011698;28;20453;-76
2021/12/29 04:54:51;;;;;;;2.20;0.60;;;;;;;7.63;100.00;153318.94;5010965;28;20449;-76
2021/12/29 04:57:30;;;;;;;1.67;0.53;;;;;;;7.61;100.00;153315.09;5039471;28;20483;-76
2021/12/29 05:00:08;;;;;;;1.57;0.70;;;;;;;7.61;100.00;153315.09;5014089;28;20469;-76
2021/12/29 05:02:44;;;;;;;1.10;0.60;;;;;;;7.62;100.00;153316.41;5030665;28;20923;-76
2021/12/29 05:05:23;;;;;;;1.73;0.70;;;;;;;7.62;100.00;153316.41;5030118;28;20448;-76
2021/12/29 05:10:53;;;;;;;2.90;0.70;;;;;;;7.60;100.00;153312.50;5008013;28;20769;-76
2021/12/29 05:13:33;;;;;;;0.90;0.60;;;;;;;7.63;100.00;153318.94;4993947;28;20892;-76
2021/12/29 05:16:09;;;;;;;4.73;0.70;;;;;;;7.61;100.00;153313.78;5006763;28;20929;-76
2021/12/29 05:18:45;;;;;;;2.50;1.00;;;;;;;7.60;100.00;153312.50;5007040;28;20513;-76
2021/12/29 05:21:21;;;;;;;1.67;0.40;;;;;;;7.59;100.00;153309.94;4977441;28;20418;-76
2021/12/29 05:23:56;;;;;;;1.47;0.57;;;;;;;7.58;100.00;153306.03;4997915;28;20472;-75
2021/12/29 05:26:32;;;;;;;1.40;0.50;;;;;;;7.56;100.00;153302.19;5005155;28;20461;-77
2021/12/29 05:29:09;;;;;;;1.83;0.73;;;;;;;7.58;100.00;153306.03;5010339;28;20536;-78
2021/12/29 05:31:45;;;;;;;1.30;0.70;;;;;;;7.60;100.00;153311.25;4993773;28;20441;-78
2021/12/29 05:34:20;;;;;;;1.67;0.60;;;;;;;7.57;100.00;153303.47;4993473;28;20498;-76
2021/12/29 05:36:56;;;;;;;1.63;0.63;;;;;;;7.56;100.00;153302.19;5018496;28;20461;-76
2021/12/29 05:39:32;;;;;;;3.57;1.00;;;;;;;7.58;100.00;153306.03;4978165;28;20466;-76
2021/12/29 05:42:08;;;;;;;2.50;0.83;;;;;;;7.52;100.00;153290.56;4994788;28;20478;-76
2021/12/29 05:44:45;;;;;;;1.17;0.60;;;;;;;7.53;100.00;153294.44;5009898;28;20434;-76
2021/12/29 05:47:21;;;;;;;1.20;0.67;;;;;;;7.51;100.00;153287.97;5008306;28;20477;-76
2021/12/29 05:49:56;;;;;;;6.13;0.90;;;;;;;7.53;100.00;153293.13;4993732;28;20532;-76
2021/12/29 05:52:32;;;;;;;2.07;0.60;;;;;;;7.52;100.00;153291.81;4993394;28;20445;-77
2021/12/29 05:55:09;;;;;;;1.83;0.80;;;;;;;7.52;100.00;153290.56;4991926;28;20532;-77
2021/12/29 05:57:35;;;;;;;1.00;0.50;;;;;;;7.51;100.00;153287.97;5004746;28;21272;-77
2021/12/29 06:00:04;;;;;;;1.73;0.60;;;;;;;7.51;100.00;153287.97;4982919;28;20497;-77
2021/12/29 06:02:45;;;;;;;1.00;0.50;;;;;;;7.52;100.00;153291.81;4992927;28;20458;-76
2021/12/29 06:05:31;;;;;;;1.73;0.40;;;;;;;7.52;100.00;153290.56;4993248;28;20528;-76
2021/12/29 06:08:11;;;;;;;1.70;0.37;;;;;;;7.52;100.00;153290.56;4994833;28;20446;-76
2021/12/29 06:10:59;;;;;;;1.63;0.60;;;;;;;7.52;100.00;153290.56;5004990;28;20531;-77
2021/12/29 06:13:34;;;;;;;3.10;0.70;;;;;;;7.54;100.00;153295.72;4990722;28;20525;-77
2021/12/29 06:16:11;;;;;;;1.40;0.70;;;;;;;7.53;100.00;153293.13;5008612;28;20445;-77
2021/12/29 06:18:47;;;;;;;1.00;0.60;;;;;;;7.55;100.00;153298.28;4994239;28;20461;-77
2021/12/29 06:21:23;;;;;;;2.07;1.00;;;;;;;7.55;100.00;153298.28;5009023;28;20464;-77
2021/12/29 06:23:58;;;;;;;1.20;0.63;;;;;;;7.57;100.00;153303.47;5009042;28;20434;-77
2021/12/29 06:26:34;;;;;;;0.90;0.50;;;;;;;7.57;100.00;153304.72;4992836;28;20457;-77
2021/12/29 06:29:09;;;;;;;1.77;0.70;;;;;;;7.57;100.00;153303.47;4992845;28;20438;-77
2021/12/29 06:31:48;;;;;;;0.70;0.40;;;;;;;7.58;100.00;153307.34;5024185;28;20449;-77
2021/12/29 06:34:23;;;;;;;2.40;0.60;;;;;;;7.59;100.00;153308.63;5006596;28;20551;-77
2021/12/29 06:37:03;;;;;;;1.90;0.97;;;;;;;7.53;100.00;153294.44;4992175;28;20935;-77
2021/12/29 06:39:39;;;;;;;2.63;0.83;;;;;;;7.55;100.00;153299.59;4991982;28;20497;-77
2021/12/29 06:42:16;;;;;;;1.80;0.83;;;;;;;7.58;100.00;153307.34;4992265;28;20900;-77
2021/12/29 06:44:51;;;;;;;1.83;0.70;;;;;;;7.61;100.00;153313.78;4977232;28;20545;-77
2021/12/29 06:47:28;;;;;;;1.10;0.63;;;;;;;7.58;100.00;153306.03;4993278;28;20465;-77
2021/12/29 06:50:05;;;;;;;1.10;0.60;;;;;;;7.55;100.00;153298.28;5004444;28;20539;-77
2021/12/29 06:52:41;;;;;;;1.37;0.90;;;;;;;7.57;100.00;153303.47;5007607;28;20925;-77
2021/12/29 06:55:16;;;;;;;1.40;0.83;;;;;;;7.58;100.00;153306.03;5008540;28;20769;-77
2021/12/29 06:57:52;;;;;;;1.10;0.60;;;;;;;7.55;100.00;153298.28;4993008;28;20437;-77
2021/12/29 07:00:28;;;;;;;1.50;0.80;;;;;;;7.53;100.00;153293.13;4991946;28;20465;-77
2021/12/29 07:03:05;;;;;;;1.93;0.70;;;;;;;7.52;100.00;153291.81;5008328;28;20476;-77
2021/12/29 07:05:41;;;;;;;1.10;0.70;;;;;;;7.53;100.00;153293.13;4991768;28;20527;-77
2021/12/29 07:08:16;;;;;;;2.70;0.70;;;;;;;7.55;100.00;153299.59;4991217;28;20481;-77
2021/12/29 07:10:52;;;;;;;2.47;1.00;;;;;;;7.53;100.00;153293.13;5002942;28;20449;-77
2021/12/29 07:13:27;;;;;;;1.00;0.70;;;;;;;7.53;100.00;153293.13;4972659;28;20434;-77
2021/12/29 07:16:03;;;;;;;1.47;0.73;;;;;;;7.54;100.00;153295.72;5004553;28;20441;-77
2021/12/29 07:18:40;;;;;;;1.30;0.57;;;;;;;7.54;100.00;153295.72;5008000;28;20449;-77
2021/12/29 07:21:15;;;;;;;1.63;0.90;;;;;;;7.53;100.00;153293.13;4976524;28;20960;-77
2021/12/29 07:23:53;;;;;;;2.13;0.90;;;;;;;7.58;100.00;153306.03;5008000;28;20805;-77
2021/12/29 07:26:29;;;;;;;3.10;1.20;;;;;;;7.53;100.00;153293.13;4992087;28;20422;-77
2021/12/29 07:29:06;;;;;;;4.00;1.27;;;;;;;7.53;100.00;153294.44;5007979;28;20444;-77
2021/12/29 07:31:41;;;;;;;2.63;0.90;;;;;;;7.55;100.00;153299.59;4989537;28;20461;-77
2021/12/29 07:34:18;;;;;;;2.50;1.80;;;;;;;7.58;100.00;153306.03;4990165;28;20865;-77
2021/12/29 07:36:54;;;;;;;3.20;1.97;;;;;;;7.57;100.00;153303.47;4989395;28;20485;-80
2021/12/29 07:39:30;;;;;;;1.70;1.13;;;;;;;7.57;100.00;153303.47;5007691;28;20504;-77
2021/12/29 07:42:05;;;;;;;1.70;1.40;;;;;;;7.58;100.00;153306.03;5007431;28;20449;-77
2021/12/29 07:44:50;;;;;;;2.27;1.23;;;;;;;7.58;100.00;153306.03;4976512;28;20437;-77
2021/12/29 07:47:26;;;;;;;3.40;1.17;;;;;;;7.59;100.00;153308.63;5006795;28;20976;-77
2021/12/29 07:50:04;;;;;;;1.70;0.83;;;;;;;7.60;100.00;153311.25;4979614;28;20531;-77
2021/12/29 07:52:39;;;;;;;2.70;1.17;;;;;;;7.60;100.00;153311.25;4984625;28;20824;-77
2021/12/29 07:55:15;;;;;;;2.20;1.03;;;;;;;7.60;100.00;153312.50;5004086;28;20544;-77
2021/12/29 07:57:51;;;;;;;1.47;0.90;;;;;;;7.61;100.00;153313.78;4988595;28;20446;-77
2021/12/29 08:00:27;;;;;;;2.80;1.57;;;;;;;7.63;100.00;153318.94;5008538;28;20472;-78
2021/12/29 08:03:04;;;;;;;1.77;1.10;;;;;;;7.63;100.00;153318.94;5010455;28;20441;-77
2021/12/29 08:05:41;;;;;;;2.00;1.23;;;;;;;7.64;100.00;153322.84;5009453;28;20540;-77
2021/12/29 08:08:17;;;;;;;1.40;1.10;;;;;;;7.64;100.00;153321.56;5006915;28;20933;-77
2021/12/29 08:10:52;;;;;;;5.50;2.50;;;;;;;7.64;100.00;153322.84;4995719;28;20437;-77
2021/12/29 08:13:28;;;;;;;2.73;1.60;;;;;;;7.66;100.00;153326.72;5011989;28;20471;-77
2021/12/29 08:16:04;;;;;;;1.77;1.50;;;;;;;7.66;100.00;153326.72;4996220;28;20440;-77
2021/12/29 08:18:40;;;;;;;6.27;1.50;;;;;;;7.64;100.00;153322.84;4994828;28;20441;-77
2021/12/29 08:21:17;;;;;;;1.37;1.00;;;;;;;7.65;100.00;153325.41;4994588;28;20477;-77
2021/12/29 08:23:52;;;;;;;1.97;1.20;;;;;;;7.66;100.00;153328.00;4993441;28;20477;-77
2021/12/29 08:26:28;;;;;;;2.10;1.30;;;;;;;7.67;100.00;153330.59;4993764;28;20939;-77
2021/12/29 08:29:04;;;;;;;2.63;1.80;;;;;;;7.69;100.00;153335.75;5005835;28;20465;-77
2021/12/29 08:31:39;;;;;;;2.03;1.47;;;;;;;7.72;100.00;153343.53;5004164;28;20477;-77
2021/12/29 08:34:15;;;;;;;2.10;1.80;;;;;;;7.68;100.00;153331.84;5023769;28;20838;-77
2021/12/29 08:36:53;;;;;;;1.90;1.63;;;;;;;7.74;100.00;153347.38;5010286;28;20824;-78
2021/12/29 08:39:28;;;;;;;1.50;1.07;;;;;;;7.78;100.00;153358.97;4994322;28;20691;-77
2021/12/29 08:42:04;;;;;;;2.13;1.50;;;;;;;7.79;100.00;153361.59;4995197;28;20457;-78
2021/12/29 08:44:40;;;;;;;1.73;1.50;;;;;;;7.81;100.00;153365.50;5007765;28;20541;-77
2021/12/29 08:47:15;;;;;;;4.60;3.77;;;;;;;7.84;100.00;153373.19;5010237;28;20484;-77
2021/12/29 08:49:51;;;;;;;6.20;4.43;;;;;;;7.85;100.00;153377.09;4992141;28;20527;-77
2021/12/29 08:52:28;;;;;;;4.50;3.37;;;;;;;7.87;100.00;153382.25;4994802;28;20445;-78
2021/12/29 08:55:04;;;;;;;2.10;1.53;;;;;;;7.90;100.00;153388.72;5027373;28;20859;-77
2021/12/29 08:57:40;;;;;;;2.50;1.60;;;;;;;7.91;100.00;153391.31;5010372;28;20457;-77
2021/12/29 09:00:18;;;;;;;2.23;1.80;;;;;;;7.91;100.00;153391.31;4994451;28;20461;-78
2021/12/29 09:02:53;;;;;;;3.10;1.97;;;;;;;7.93;100.00;153397.78;4978652;28;20449;-78
2021/12/29 09:05:29;;;;;;;3.17;1.97;;;;;;;7.94;100.00;153399.09;4969691;28;20441;-78
2021/12/29 09:08:06;;;;;;;1.97;1.30;;;;;;;7.94;100.00;153400.34;5003532;28;20466;-77
2021/12/29 09:10:44;;;;;;;5.53;1.70;;;;;;;7.99;100.00;153413.25;4974907;28;20442;-77
2021/12/29 09:13:20;;;;;;;3.27;1.60;;;;;;;8.00;100.00;153414.53;4992077;28;20865;-77
2021/12/29 09:15:57;;;;;;;2.60;1.90;;;;;;;8.04;100.00;153424.91;4993022;28;20441;-78
2021/12/29 09:18:34;;;;;;;4.10;2.93;;;;;;;8.08;100.00;153435.22;5009951;28;20441;-77
2021/12/29 09:21:14;;;;;;;5.67;3.70;;;;;;;8.14;100.00;153450.75;4993464;28;20820;-77
2021/12/29 09:23:51;;;;;;;3.80;2.97;;;;;;;8.13;100.00;153446.88;5008422;28;20441;-78
2021/12/29 09:26:27;;;;;;;7.20;4.90;;;;;;;8.16;100.00;153455.91;4979188;28;20476;-77
2021/12/29 09:29:02;;;;;;;3.40;3.00;;;;;;;8.22;100.00;153471.44;5010771;28;20444;-77
2021/12/29 09:31:38;;;;;;;4.83;3.00;;;;;;;8.26;100.00;153481.75;4977932;28;20446;-77
2021/12/29 09:34:14;;;;;;;5.50;3.73;;;;;;;8.26;100.00;153480.50;4993935;28;20421;-78
2021/12/29 09:36:49;;;;;;;4.00;1.90;;;;;;;8.28;100.00;153487.00;5009605;28;20783;-77
2021/12/29 09:39:26;;;;;;;4.50;2.00;;;;;;;8.27;100.00;153484.41;4992866;28;20441;-77
2021/12/29 09:42:02;;;;;;;3.90;3.03;;;;;;;8.30;100.00;153490.84;5006809;28;20457;-77
2021/12/29 09:44:38;;;;;;;5.23;2.57;;;;;;;8.29;100.00;153489.56;5009554;28;20444;-77
2021/12/29 09:47:13;;;;;;;2.80;2.20;;;;;;;8.31;100.00;153493.47;4993780;28;20525;-77
2021/12/29 09:49:49;;;;;;;3.23;2.50;;;;;;;8.33;100.00;153498.63;4993810;28;20445;-77
2021/12/29 09:52:29;;;;;;;3.40;2.67;;;;;;;8.32;100.00;153497.31;4992493;28;20449;-77
2021/12/29 09:55:10;;;;;;;2.83;1.90;;;;;;;8.36;100.00;153507.69;5009202;28;20430;-78
2021/12/29 09:57:48;;;;;;;4.43;2.00;;;;;;;8.43;100.00;153525.75;5008600;28;20477;-78
2021/12/29 10:00:26;;;;;;;2.70;1.67;;;;;;;8.47;100.00;153536.06;5025626;28;20985;-77
2021/12/29 10:03:05;;;;;;;4.23;1.80;;;;;;;8.47;100.00;153536.06;4993979;28;20445;-77
2021/12/29 10:05:44;;;;;;;6.03;2.53;;;;;;;8.50;100.00;153543.84;5008437;28;20453;-77
2021/12/29 10:08:21;;;;;;;2.67;1.67;;;;;;;8.54;100.00;153554.19;4992881;28;20532;-78
2021/12/29 10:11:01;;;;;;;2.60;1.90;;;;;;;8.56;100.00;153558.06;5025296;28;20441;-77
2021/12/29 10:13:41;;;;;;;3.10;1.93;;;;;;;8.54;100.00;153554.19;4992436;28;20457;-78
2021/12/29 10:16:21;;;;;;;5.17;1.60;;;;;;;8.56;100.00;153559.38;4976052;28;20450;-78
2021/12/29 10:19:00;;;;;;;3.27;1.80;;;;;;;8.58;100.00;153564.53;5008223;28;20469;-77
2021/12/29 10:21:36;;;;;;;5.07;1.83;;;;;;;8.54;100.00;153554.19;5005757;28;20481;-78
2021/12/29 10:24:13;;;;;;;2.73;1.73;;;;;;;8.61;100.00;153569.69;4991205;28;20442;-77
2021/12/29 10:26:51;;;;;;;3.00;1.70;;;;;;;8.62;100.00;153572.28;4973413;28;20772;-77
2021/12/29 10:29:28;;;;;;;4.67;1.77;;;;;;;8.62;100.00;153572.28;4973763;28;20435;-77
2021/12/29 10:32:06;;;;;;;4.13;2.43;;;;;;;8.61;100.00;153570.97;5003131;28;20454;-77
2021/12/29 10:34:50;;;;;;;5.23;1.50;;;;;;;8.68;100.00;153587.81;4990988;28;20457;-77
2021/12/29 10:37:26;;;;;;;1.53;1.23;;;;;;;8.68;100.00;153587.81;4998699;28;20840;-77
2021/12/29 10:40:01;;;;;;;3.97;1.20;;;;;;;8.68;100.00;153589.13;4997380;28;20799;-78
2021/12/29 10:42:38;;;;;;;1.90;1.20;;;;;;;8.68;100.00;153589.13;5008777;28;20548;-77
2021/12/29 10:45:14;;;;;;;2.03;1.03;;;;;;;8.68;100.00;153589.13;4987497;28;20443;-77
2021/12/29 10:47:50;;;;;;;3.70;1.40;;;;;;;8.69;100.00;153590.38;4993099;28;20472;-77
2021/12/29 10:50:27;;;;;;;4.07;2.10;;;;;;;8.68;100.00;153587.81;5008014;28;20446;-77
2021/12/29 10:53:02;;;;;;;3.50;2.30;;;;;;;8.70;100.00;153592.97;5007980;28;20453;-77
2021/12/29 10:55:40;;;;;;;5.03;3.50;;;;;;;8.76;100.00;153609.81;5006152;28;20503;-77
2021/12/29 10:58:19;;;;;;;5.13;3.00;;;;;;;8.83;100.00;153626.59;4992686;28;20532;-77
2021/12/29 11:01:01;;;;;;;3.43;2.07;;;;;;;8.88;100.00;153639.50;4992753;28;20457;-77
2021/12/29 11:03:44;;;;;;;3.87;1.90;;;;;;;8.88;100.00;153639.50;5006967;28;20832;-77
2021/12/29 11:06:21;;;;;;;2.90;1.93;;;;;;;8.88;100.00;153639.50;5021778;28;20440;-77
2021/12/29 11:08:58;;;;;;;2.57;1.50;;;;;;;8.93;100.00;153652.44;4991694;28;20441;-77
2021/12/29 11:11:36;;;;;;;2.67;1.50;;;;;;;8.93;100.00;153652.44;4989040;28;20453;-77
2021/12/29 11:14:14;;;;;;;4.37;2.40;;;;;;;8.95;100.00;153658.91;4985017;28;20449;-77
2021/12/29 11:17:00;;;;;;;3.10;1.30;;;;;;;8.97;100.00;153662.81;4993548;28;20448;-77
2021/12/29 11:19:36;;;;;;;6.50;2.03;;;;;;;8.98;100.00;153666.66;5008360;28;20469;-77
2021/12/29 11:22:13;;;;;;;3.47;2.70;;;;;;;8.97;100.00;153662.81;4991107;28;20516;-77
2021/12/29 11:24:55;;;;;;;5.77;3.37;;;;;;;8.96;100.00;153660.19;4980959;28;20446;-77
2021/12/29 11:27:33;;;;;;;3.87;2.27;;;;;;;8.96;100.00;153660.19;4988821;28;21117;-77
2021/12/29 11:30:12;;;;;;;6.00;2.57;;;;;;;8.97;100.00;153662.81;4992162;28;20414;-77
2021/12/29 11:32:49;;;;;;;3.07;1.47;;;;;;;8.95;100.00;153658.91;5006916;28;20853;-77
2021/12/29 11:35:24;;;;;;;4.53;2.23;;;;;;;8.96;100.00;153661.50;5005946;28;20434;-77
2021/12/29 11:38:01;;;;;;;3.50;1.50;;;;;;;8.96;100.00;153660.19;4992050;28;20491;-77
2021/12/29 11:40:40;;;;;;;1.73;1.20;;;;;;;8.97;100.00;153662.81;5007089;28;20481;-77
2021/12/29 11:43:16;;;;;;;1.87;1.10;;;;;;;8.88;100.00;153639.50;5007052;28;20450;-77
2021/12/29 11:45:56;;;;;;;3.13;1.23;;;;;;;8.87;100.00;153638.22;4970987;28;20449;-77
2021/12/29 11:48:32;;;;;;;1.23;0.73;;;;;;;8.88;100.00;153639.50;5007611;28;20473;-77
2021/12/29 11:51:08;;;;;;;1.93;0.80;;;;;;;8.89;100.00;153643.41;4990512;28;20453;-77
2021/12/29 11:53:48;;;;;;;2.40;1.30;;;;;;;8.88;100.00;153640.81;5007266;28;20536;-77
2021/12/29 11:56:24;;;;;;;3.97;2.00;;;;;;;8.92;100.00;153649.88;4975613;28;20978;-77
2021/12/29 11:59:04;;;;;;;2.33;1.30;;;;;;;8.91;100.00;153648.56;4982187;28;20445;-77
2021/12/29 12:01:41;;;;;;;2.97;2.13;;;;;;;8.88;100.00;153639.50;4986113;28;20890;-77
2021/12/29 12:04:20;;;;;;;2.10;1.30;;;;;;;8.92;100.00;153651.13;4990907;28;20531;-77
2021/12/29 12:07:01;;;;;;;3.10;1.40;;;;;;;8.94;100.00;153655.03;4988416;28;20449;-77
2021/12/29 12:09:48;;;;;;;5.37;2.00;;;;;;;8.96;100.00;153660.19;4970939;28;20473;-77
2021/12/29 12:12:33;;;;;;;4.50;1.23;;;;;;;9.00;100.00;153670.56;4972758;28;20555;-77
2021/12/29 12:15:11;;;;;;;3.80;1.50;;;;;;;9.04;100.00;153682.19;4990953;28;20450;-77
2021/12/29 12:17:55;;;;;;;3.17;1.27;;;;;;;9.05;100.00;153684.75;5023214;28;20445;-77